Time;durP1;ratioP1;P1;durP2;ratioP2;P2;SDS_P1;SDS_P2;PMS_P1;PMS_P2;Temp;Humidity;BMP_temperature;BMP_pressure;BME280_temperature;BME280_humidity;BME280_pressure;Samples;Min_cycle;Max_cycle;Signal;HPM_P1;HPM_P2
2023/09/13 00:01:51;;;;;;;2.30;2.10;;;;;;;23.81;55.79;94847.31;5030059;28;20206;-85
2023/09/13 00:04:17;;;;;;;2.28;2.10;;;;;;;23.77;56.23;94850.47;5049714;28;20205;-85
2023/09/13 00:06:44;;;;;;;4.60;2.88;;;;;;;23.78;56.07;94853.91;5049529;28;20233;-85
2023/09/13 00:09:10;;;;;;;2.72;2.45;;;;;;;23.77;56.08;94842.59;5041737;28;20229;-85
2023/09/13 00:11:37;;;;;;;3.80;2.50;;;;;;;23.76;55.72;94841.03;5030003;28;20205;-85
2023/09/13 00:14:05;;;;;;;2.45;2.25;;;;;;;23.77;56.03;94853.13;5029373;28;20228;-85
2023/09/13 00:16:33;;;;;;;2.33;2.08;;;;;;;23.75;56.40;94859.72;5029658;28;20229;-85
2023/09/13 00:19:03;;;;;;;3.10;2.60;;;;;;;23.65;56.77;94878.22;5037060;28;20221;-85
2023/09/13 00:21:30;;;;;;;2.90;2.53;;;;;;;23.62;56.71;94895.31;5046424;28;20678;-86
2023/09/13 00:23:56;;;;;;;3.88;2.20;;;;;;;23.59;56.56;94906.38;5029795;28;20229;-85
2023/09/13 00:26:23;;;;;;;2.95;2.25;;;;;;;23.63;56.59;94901.34;5029681;28;20202;-84
2023/09/13 00:28:52;;;;;;;2.20;2.00;;;;;;;23.68;56.39;94915.22;5029532;28;20202;-85
2023/09/13 00:31:18;;;;;;;2.20;2.00;;;;;;;23.71;56.59;94911.25;5029603;28;20801;-85
2023/09/13 00:33:46;;;;;;;3.67;2.40;;;;;;;23.69;56.74;94921.25;5028939;28;20213;-84
2023/09/13 00:36:13;;;;;;;2.58;2.15;;;;;;;23.67;56.83;94908.38;5046553;28;20725;-85
2023/09/13 00:38:39;;;;;;;2.40;2.20;;;;;;;23.66;56.46;94903.44;5048967;28;20221;-85
2023/09/13 00:41:06;;;;;;;2.80;2.00;;;;;;;23.68;56.31;94902.06;5049420;28;20197;-85
2023/09/13 00:43:32;;;;;;;2.78;2.17;;;;;;;23.67;56.66;94902.34;5033457;28;20206;-85
2023/09/13 00:45:59;;;;;;;2.28;2.00;;;;;;;23.61;56.31;94904.25;5029305;28;20252;-85
2023/09/13 00:48:26;;;;;;;2.65;1.92;;;;;;;23.56;56.36;94893.78;5029368;28;20222;-85
2023/09/13 00:50:54;;;;;;;2.70;1.90;;;;;;;23.49;56.38;94911.66;5033864;28;20260;-85
2023/09/13 00:53:21;;;;;;;3.03;2.00;;;;;;;23.40;57.04;94919.34;5034066;28;20198;-85
2023/09/13 00:55:49;;;;;;;2.50;1.85;;;;;;;23.35;57.29;94929.88;5010340;28;20210;-85
2023/09/13 00:58:18;;;;;;;2.25;2.05;;;;;;;23.33;57.11;94932.00;5009205;28;20313;-85
2023/09/13 01:00:44;;;;;;;4.25;2.20;;;;;;;23.30;57.42;94944.88;5009486;28;20301;-85
2023/09/13 01:03:11;;;;;;;2.38;1.98;;;;;;;23.28;57.38;94954.91;5009123;28;20206;-85
2023/09/13 01:05:37;;;;;;;2.42;2.15;;;;;;;23.28;57.58;94945.19;5009189;28;20783;-85
2023/09/13 01:08:06;;;;;;;2.28;2.05;;;;;;;23.22;57.94;94962.00;5039785;28;20213;-85
2023/09/13 01:10:32;;;;;;;2.10;1.90;;;;;;;23.24;57.87;94962.53;5029021;28;20217;-85
2023/09/13 01:12:59;;;;;;;2.92;2.63;;;;;;;23.16;57.83;94970.19;5028612;28;20202;-85
2023/09/13 01:15:28;;;;;;;2.65;2.30;;;;;;;23.16;57.78;94978.06;5028718;28;20214;-85
2023/09/13 01:18:02;;;;;;;3.20;2.35;;;;;;;23.14;58.15;94980.16;5027809;28;20586;-85
2023/09/13 01:20:49;;;;;;;2.65;2.10;;;;;;;23.09;57.78;94973.88;5017702;28;20692;-85
2023/09/13 01:23:36;;;;;;;2.60;2.40;;;;;;;23.09;57.82;94981.00;5034464;28;20208;-85
2023/09/13 01:26:19;;;;;;;3.30;2.38;;;;;;;23.09;58.30;94979.13;5034803;28;20233;-85
2023/09/13 01:28:48;;;;;;;3.17;2.40;;;;;;;23.04;58.31;94971.28;5028600;28;20574;-85
2023/09/13 01:31:18;;;;;;;3.58;2.47;;;;;;;22.94;58.57;94979.19;5028927;28;20206;-85
2023/09/13 01:33:45;;;;;;;2.55;2.35;;;;;;;22.94;58.64;94978.41;5028648;28;20206;-85
2023/09/13 01:36:11;;;;;;;3.08;2.30;;;;;;;22.89;58.83;94981.06;5028613;28;20221;-86
2023/09/13 01:38:38;;;;;;;2.65;2.38;;;;;;;22.84;59.21;94991.59;5027848;28;20239;-86
2023/09/13 01:41:11;;;;;;;2.45;2.25;;;;;;;22.90;59.07;94993.91;5048282;28;20198;-85
2023/09/13 01:43:40;;;;;;;2.40;2.20;;;;;;;22.84;59.17;94988.97;5032197;28;20933;-85
2023/09/13 01:46:09;;;;;;;2.78;2.53;;;;;;;22.89;58.39;94981.84;5028522;28;20280;-85
2023/09/13 01:48:37;;;;;;;2.83;2.63;;;;;;;22.92;58.51;94983.13;5026947;28;20233;-85
2023/09/13 01:51:04;;;;;;;3.80;2.58;;;;;;;22.95;58.35;94972.88;5021113;28;20201;-84
2023/09/13 01:53:30;;;;;;;3.63;2.30;;;;;;;22.95;58.55;94975.50;5028514;28;20217;-85
2023/09/13 01:55:57;;;;;;;2.85;2.60;;;;;;;22.97;58.41;94970.00;5037593;28;20208;-84
2023/09/13 01:58:23;;;;;;;2.60;2.40;;;;;;;22.88;58.64;94995.25;5048164;28;20241;-85
2023/09/13 02:00:50;;;;;;;4.22;2.80;;;;;;;22.81;58.69;94987.66;5048402;28;20205;-85
2023/09/13 02:03:17;;;;;;;2.47;2.28;;;;;;;22.82;58.87;94988.44;5047983;28;20216;-85
2023/09/13 02:05:44;;;;;;;3.95;2.53;;;;;;;22.87;58.40;94988.44;5048032;28;20209;-85
2023/09/13 02:08:10;;;;;;;3.05;2.78;;;;;;;22.92;58.50;94989.16;5048494;28;20218;-85
2023/09/13 02:10:37;;;;;;;3.75;2.72;;;;;;;22.93;58.39;94993.38;5027606;28;20301;-85
2023/09/13 02:13:03;;;;;;;3.08;2.60;;;;;;;22.92;58.56;94998.88;5046628;28;20209;-85
2023/09/13 02:15:30;;;;;;;2.70;2.50;;;;;;;22.94;58.34;94991.53;5032867;28;20202;-85
2023/09/13 02:17:57;;;;;;;2.85;2.55;;;;;;;22.90;58.89;95022.78;5015878;28;20325;-84
2023/09/13 02:20:25;;;;;;;3.70;2.50;;;;;;;22.92;58.73;95014.63;5027851;28;20202;-85
2023/09/13 02:22:51;;;;;;;2.72;2.47;;;;;;;22.90;58.48;95022.03;5028812;28;20202;-85
2023/09/13 02:25:18;;;;;;;3.15;2.70;;;;;;;22.88;58.64;95016.25;5031582;28;20194;-85
2023/09/13 02:27:45;;;;;;;3.10;2.42;;;;;;;22.83;58.62;95018.88;5037887;28;20244;-85
2023/09/13 02:30:11;;;;;;;4.63;2.90;;;;;;;22.80;58.40;95028.06;5051736;28;20231;-85
2023/09/13 02:32:38;;;;;;;2.85;2.65;;;;;;;22.79;58.94;95031.75;5051494;28;20208;-85
2023/09/13 02:35:05;;;;;;;2.50;2.30;;;;;;;22.75;58.83;95041.97;5051423;28;20217;-85
2023/09/13 02:37:33;;;;;;;4.03;2.30;;;;;;;22.72;58.84;95060.06;5051720;28;20225;-86
2023/09/13 02:39:59;;;;;;;2.50;2.30;;;;;;;22.70;59.38;95068.25;5051472;28;20226;-85
2023/09/13 02:42:26;;;;;;;3.38;2.75;;;;;;;22.69;59.00;95076.38;5045658;28;20194;-85
2023/09/13 02:44:52;;;;;;;4.90;2.60;;;;;;;22.67;59.13;95086.34;5039977;28;20221;-85
2023/09/13 02:47:18;;;;;;;3.60;2.60;;;;;;;22.68;59.40;95077.41;5030567;28;20219;-85
2023/09/13 02:49:45;;;;;;;2.53;2.33;;;;;;;22.64;59.33;95074.53;5012555;28;20222;-85
2023/09/13 02:52:11;;;;;;;5.15;2.90;;;;;;;22.65;59.41;95073.47;5011892;28;20619;-84
2023/09/13 02:54:39;;;;;;;3.38;2.60;;;;;;;22.68;59.42;95082.66;5011459;28;20202;-85
2023/09/13 02:57:07;;;;;;;2.60;2.40;;;;;;;22.68;59.69;95093.16;5011471;28;20226;-85
2023/09/13 02:59:33;;;;;;;2.90;2.60;;;;;;;22.67;59.50;95100.25;5018457;28;20292;-85
2023/09/13 03:01:59;;;;;;;2.63;2.40;;;;;;;22.67;59.57;95099.47;5050950;28;20662;-85
2023/09/13 03:04:26;;;;;;;5.00;2.40;;;;;;;22.70;59.56;95091.06;5050751;28;20205;-85
2023/09/13 03:06:52;;;;;;;3.55;2.60;;;;;;;22.62;59.84;95115.22;5051203;28;20229;-85
2023/09/13 03:09:19;;;;;;;3.55;2.50;;;;;;;22.62;59.95;95112.59;5041522;28;20722;-85
2023/09/13 03:11:48;;;;;;;3.97;2.50;;;;;;;22.59;59.98;95113.91;5030973;28;20202;-85
2023/09/13 03:14:15;;;;;;;2.70;2.50;;;;;;;22.57;60.41;95113.38;5030886;28;20217;-85
2023/09/13 03:16:41;;;;;;;2.80;2.60;;;;;;;22.61;60.02;95108.38;5040199;28;20590;-85
2023/09/13 03:19:07;;;;;;;4.28;2.92;;;;;;;22.63;60.09;95108.91;5050197;28;20229;-85
2023/09/13 03:21:34;;;;;;;2.95;2.65;;;;;;;22.66;60.19;95106.56;5051327;28;20209;-85
2023/09/13 03:24:00;;;;;;;3.22;2.90;;;;;;;22.70;59.95;95096.31;5050957;28;20197;-85
2023/09/13 03:26:27;;;;;;;3.10;2.72;;;;;;;22.72;59.82;95086.31;5033546;28;20813;-85
2023/09/13 03:28:56;;;;;;;3.38;2.70;;;;;;;22.72;60.03;95086.31;5030858;28;20214;-85
2023/09/13 03:31:25;;;;;;;4.82;3.03;;;;;;;22.70;59.86;95094.47;5029092;28;20213;-85
2023/09/13 03:33:54;;;;;;;5.80;2.90;;;;;;;22.71;59.84;95093.41;5049491;28;20209;-85
2023/09/13 03:36:21;;;;;;;3.92;2.83;;;;;;;22.72;59.85;95091.56;5050502;28;20582;-84
2023/09/13 03:38:47;;;;;;;3.20;2.90;;;;;;;22.67;60.20;95095.00;5050552;28;20232;-85
2023/09/13 03:41:17;;;;;;;5.63;3.00;;;;;;;22.69;59.98;95100.78;5032984;28;20201;-85
2023/09/13 03:43:44;;;;;;;3.28;2.70;;;;;;;22.71;59.90;95092.63;5017752;28;20199;-85
2023/09/13 03:46:12;;;;;;;4.28;2.85;;;;;;;22.74;60.08;95081.59;5011306;28;20202;-85
2023/09/13 03:48:39;;;;;;;3.38;2.92;;;;;;;22.72;59.79;95092.34;5028896;28;20224;-84
2023/09/13 03:51:07;;;;;;;3.65;3.30;;;;;;;22.72;59.88;95088.94;5038169;28;20209;-84
2023/09/13 03:53:34;;;;;;;3.00;2.80;;;;;;;22.71;59.94;95092.63;5058138;28;20232;-85
2023/09/13 03:56:01;;;;;;;3.88;3.20;;;;;;;22.69;60.21;95092.91;5053404;28;20334;-85
2023/09/13 03:58:28;;;;;;;4.35;2.80;;;;;;;22.71;59.91;95092.63;5054860;28;20236;-84
2023/09/13 04:00:56;;;;;;;3.20;2.90;;;;;;;22.73;60.35;95098.38;5054924;28;20235;-85
2023/09/13 04:03:25;;;;;;;5.32;3.00;;;;;;;22.77;60.27;95099.47;5050195;28;20247;-85
2023/09/13 04:05:51;;;;;;;3.33;3.03;;;;;;;22.78;59.85;95100.25;5045936;28;20634;-85
2023/09/13 04:08:18;;;;;;;5.13;3.60;;;;;;;22.75;59.99;95097.09;5032470;28;20762;-85
2023/09/13 04:10:44;;;;;;;4.72;3.30;;;;;;;22.76;60.20;95095.25;5008750;28;20246;-85
2023/09/13 04:13:11;;;;;;;3.50;2.95;;;;;;;22.79;60.16;95089.50;5029885;28;20206;-85
2023/09/13 04:15:37;;;;;;;3.75;3.30;;;;;;;22.79;60.19;95101.84;5030135;28;20194;-85
2023/09/13 04:18:04;;;;;;;3.60;3.05;;;;;;;22.75;60.37;95112.03;5028930;28;20221;-85
2023/09/13 04:20:32;;;;;;;4.05;3.28;;;;;;;22.69;60.73;95115.75;5034278;28;20221;-85
2023/09/13 04:22:59;;;;;;;3.88;3.30;;;;;;;22.74;60.33;95123.59;5049642;28;20205;-85
2023/09/13 04:25:25;;;;;;;3.78;3.40;;;;;;;22.76;60.59;95134.63;5040867;28;20194;-85
2023/09/13 04:27:56;;;;;;;4.18;3.78;;;;;;;22.81;60.42;95133.88;5030370;28;20218;-85
2023/09/13 04:30:23;;;;;;;3.83;3.45;;;;;;;22.78;60.80;95135.19;5030055;28;20206;-85
2023/09/13 04:32:49;;;;;;;3.97;3.65;;;;;;;22.81;60.80;95142.53;5029828;28;20197;-85
2023/09/13 04:35:17;;;;;;;3.97;3.58;;;;;;;22.85;60.54;95140.97;5029924;28;20224;-85
2023/09/13 04:37:44;;;;;;;5.40;3.55;;;;;;;22.88;60.88;95144.91;5036843;28;20267;-85
2023/09/13 04:40:12;;;;;;;4.30;3.90;;;;;;;22.90;60.56;95151.44;5034632;28;20229;-85
2023/09/13 04:42:51;;;;;;;4.60;3.80;;;;;;;22.88;60.91;95166.69;5029680;28;20226;-85
2023/09/13 04:45:17;;;;;;;5.18;3.88;;;;;;;22.85;61.29;95177.72;5029013;28;20206;-84
2023/09/13 04:47:44;;;;;;;6.60;3.67;;;;;;;22.82;61.83;95183.47;5029467;28;20236;-85
2023/09/13 04:50:10;;;;;;;6.30;4.05;;;;;;;22.85;61.47;95184.78;5029336;28;20206;-85
2023/09/13 04:52:37;;;;;;;6.40;4.10;;;;;;;22.85;61.63;95193.47;5031550;28;20546;-85
2023/09/13 04:55:05;;;;;;;4.78;4.30;;;;;;;22.86;61.57;95191.63;5049302;28;20212;-85
2023/09/13 04:57:32;;;;;;;5.38;3.78;;;;;;;22.91;61.62;95191.59;5049040;28;20263;-85
2023/09/13 04:59:59;;;;;;;4.88;4.18;;;;;;;22.94;61.79;95201.59;5048824;28;20225;-85
2023/09/13 05:02:25;;;;;;;5.03;4.28;;;;;;;22.92;62.08;95196.59;5048797;28;20201;-85
2023/09/13 05:04:52;;;;;;;4.93;4.10;;;;;;;22.92;61.76;95216.81;5029225;28;20209;-85
2023/09/13 05:07:18;;;;;;;4.85;4.05;;;;;;;22.88;62.34;95218.41;5029313;28;20230;-85
2023/09/13 05:09:44;;;;;;;4.57;4.20;;;;;;;22.94;61.88;95225.22;5040122;28;20340;-85
2023/09/13 05:12:12;;;;;;;7.55;4.35;;;;;;;22.98;62.16;95224.44;5048681;28;20209;-85
2023/09/13 05:14:42;;;;;;;4.90;4.47;;;;;;;22.98;62.68;95242.81;5048420;28;20205;-85
2023/09/13 05:17:08;;;;;;;8.07;4.90;;;;;;;23.02;62.90;95248.34;5047885;28;20217;-85
2023/09/13 05:19:35;;;;;;;6.60;4.50;;;;;;;23.01;63.06;95255.44;5048451;28;20221;-85
2023/09/13 05:22:01;;;;;;;7.18;4.63;;;;;;;23.02;62.97;95264.88;5048652;28;20228;-85
2023/09/13 05:24:28;;;;;;;10.65;4.93;;;;;;;23.09;63.06;95262.00;5044636;28;20744;-85
2023/09/13 05:26:54;;;;;;;4.95;4.50;;;;;;;23.09;63.17;95268.03;5048959;28;20226;-84
2023/09/13 05:29:22;;;;;;;5.35;4.18;;;;;;;23.14;62.94;95269.88;5048429;28;20212;-85
2023/09/13 05:31:49;;;;;;;9.15;4.68;;;;;;;23.17;63.28;95285.09;5048471;28;20215;-85
2023/09/13 05:34:15;;;;;;;7.85;4.65;;;;;;;23.20;63.06;95289.06;5027025;28;20210;-85
2023/09/13 05:36:42;;;;;;;5.95;4.50;;;;;;;23.18;63.26;95294.56;5025816;28;20225;-85
2023/09/13 05:39:09;;;;;;;10.45;5.10;;;;;;;23.11;64.26;95319.50;5028920;28;20643;-85
2023/09/13 05:41:37;;;;;;;7.60;5.00;;;;;;;23.01;65.05;95355.22;5027243;28;20201;-85
2023/09/13 05:44:04;;;;;;;7.90;5.20;;;;;;;22.94;66.08;95385.38;5043367;28;20213;-85
2023/09/13 05:46:31;;;;;;;6.25;5.03;;;;;;;22.93;67.42;95424.00;5048589;28;20201;-85
2023/09/13 05:48:58;;;;;;;9.77;4.97;;;;;;;22.92;68.37;95440.78;5048752;28;20204;-85
2023/09/13 05:51:24;;;;;;;8.70;4.97;;;;;;;22.88;68.62;95445.00;5048113;28;20713;-85
2023/09/13 05:53:51;;;;;;;5.80;4.50;;;;;;;22.87;69.85;95459.16;5048098;28;20209;-84
2023/09/13 05:56:17;;;;;;;6.95;4.82;;;;;;;22.89;70.88;95493.84;5048466;28;20208;-85
2023/09/13 05:58:44;;;;;;;6.38;5.03;;;;;;;22.91;70.52;95488.31;5046297;28;20201;-85
2023/09/13 06:01:11;;;;;;;5.38;4.68;;;;;;;22.88;71.32;95513.25;5032263;28;20225;-84
2023/09/13 06:03:39;;;;;;;7.80;4.63;;;;;;;22.80;73.03;95549.69;5032441;28;20210;-85
2023/09/13 06:06:05;;;;;;;9.70;5.10;;;;;;;22.73;74.57;95574.31;5032238;28;20218;-85
2023/09/13 06:08:32;;;;;;;5.70;4.90;;;;;;;22.69;76.39;95617.06;5032319;28;20326;-85
2023/09/13 06:10:58;;;;;;;6.07;5.35;;;;;;;22.69;76.62;95619.72;5032413;28;20281;-85
2023/09/13 06:13:25;;;;;;;7.05;5.63;;;;;;;22.65;78.93;95661.41;5035681;28;20209;-85
2023/09/13 06:15:51;;;;;;;6.85;5.43;;;;;;;22.62;78.57;95663.75;5052021;28;20206;-85
2023/09/13 06:18:17;;;;;;;6.80;6.07;;;;;;;22.59;80.39;95680.78;5051686;28;20224;-85
2023/09/13 06:20:45;;;;;;;7.38;5.75;;;;;;;22.49;82.29;95709.56;5052083;28;20260;-84
2023/09/13 06:23:36;;;;;;;6.40;5.20;;;;;;;22.47;80.13;95671.47;5053193;28;20205;-85
2023/09/13 06:26:03;;;;;;;8.48;6.47;;;;;;;22.49;79.71;95661.53;5041072;28;20212;-85
2023/09/13 06:28:29;;;;;;;12.68;11.38;;;;;;;22.50;79.08;95653.41;5035854;28;20229;-85
2023/09/13 06:30:57;;;;;;;6.00;4.85;;;;;;;22.46;78.65;95639.19;5047789;28;20194;-85
2023/09/13 06:33:24;;;;;;;6.28;4.60;;;;;;;22.45;78.74;95639.44;5039011;28;20229;-84
2023/09/13 06:35:52;;;;;;;7.25;4.93;;;;;;;22.44;79.11;95654.41;5032206;28;20202;-85
2023/09/13 06:38:18;;;;;;;7.05;4.63;;;;;;;22.40;78.37;95637.56;5031884;28;20725;-85
2023/09/13 06:40:47;;;;;;;5.75;4.82;;;;;;;22.43;78.66;95654.66;5031548;28;20225;-85
2023/09/13 06:43:14;;;;;;;5.18;4.65;;;;;;;22.47;79.77;95684.59;5031703;28;20206;-85
2023/09/13 06:45:41;;;;;;;6.32;5.00;;;;;;;22.48;81.12;95697.47;5035878;28;20205;-85
2023/09/13 06:48:07;;;;;;;5.22;4.40;;;;;;;22.52;79.13;95669.69;5051489;28;20253;-85
2023/09/13 06:50:34;;;;;;;6.93;5.35;;;;;;;22.53;79.76;95670.47;5051757;28;20205;-85
2023/09/13 06:53:01;;;;;;;5.53;4.85;;;;;;;22.53;80.89;95699.34;5051521;28;20208;-85
2023/09/13 06:55:28;;;;;;;7.68;4.47;;;;;;;22.54;81.77;95717.47;5047197;28;20206;-85
2023/09/13 06:57:54;;;;;;;7.38;5.10;;;;;;;22.45;83.48;95739.16;5031683;28;20230;-86
2023/09/13 07:00:21;;;;;;;7.15;5.60;;;;;;;22.50;82.23;95726.88;5031828;28;20593;-85
2023/09/13 07:02:47;;;;;;;5.72;5.00;;;;;;;22.61;81.13;95704.94;5042684;28;20213;-85
2023/09/13 07:05:14;;;;;;;5.90;5.30;;;;;;;22.72;80.95;95700.56;5050849;28;20213;-86
2023/09/13 07:07:40;;;;;;;5.70;5.10;;;;;;;22.77;80.99;95698.00;5051152;28;20606;-85
2023/09/13 07:10:09;;;;;;;7.40;5.43;;;;;;;22.73;80.52;95691.66;5034656;28;20197;-85
2023/09/13 07:12:35;;;;;;;6.38;5.22;;;;;;;22.75;81.05;95707.94;5030929;28;20213;-84
2023/09/13 07:15:07;;;;;;;5.18;4.68;;;;;;;22.75;81.59;95711.34;5031241;28;20675;-85
2023/09/13 07:17:33;;;;;;;5.78;5.15;;;;;;;22.81;81.72;95721.94;5030683;28;20246;-85
2023/09/13 07:20:00;;;;;;;7.88;5.45;;;;;;;22.87;81.09;95713.88;5050628;28;20229;-85
2023/09/13 07:22:27;;;;;;;8.85;5.38;;;;;;;22.88;81.31;95706.78;5051087;28;20233;-85
2023/09/13 07:24:53;;;;;;;6.47;5.07;;;;;;;22.75;82.49;95726.31;5046688;28;20194;-84
2023/09/13 07:27:23;;;;;;;5.65;5.15;;;;;;;22.82;81.03;95705.94;5025047;28;20683;-85
2023/09/13 07:29:50;;;;;;;5.97;5.13;;;;;;;22.84;80.40;95695.19;5029748;28;20198;-85
2023/09/13 07:32:18;;;;;;;6.38;4.88;;;;;;;22.86;80.86;95708.88;5030924;28;20227;-85
2023/09/13 07:34:44;;;;;;;5.70;5.20;;;;;;;22.81;80.24;95695.69;5039897;28;20208;-85
2023/09/13 07:37:10;;;;;;;7.53;5.13;;;;;;;22.83;80.61;95710.16;5046027;28;20214;-84
2023/09/13 07:39:38;;;;;;;7.63;4.85;;;;;;;22.86;79.73;95695.72;5030581;28;20213;-85
2023/09/13 07:42:06;;;;;;;6.47;4.75;;;;;;;22.91;79.69;95691.28;5030485;28;20210;-85
2023/09/13 07:44:33;;;;;;;5.90;4.90;;;;;;;22.91;79.36;95701.00;5030449;28;20233;-85
2023/09/13 07:47:00;;;;;;;5.68;4.43;;;;;;;22.87;81.07;95737.50;5030802;28;20650;-85
2023/09/13 07:49:26;;;;;;;5.57;5.07;;;;;;;22.91;80.37;95728.06;5029303;28;20202;-85
2023/09/13 07:51:53;;;;;;;6.97;4.70;;;;;;;22.98;80.28;95741.00;5046328;28;20205;-85
2023/09/13 07:54:19;;;;;;;5.20;4.75;;;;;;;23.00;80.42;95731.03;5050284;28;20724;-84
2023/09/13 07:56:46;;;;;;;4.82;4.43;;;;;;;23.06;80.60;95738.72;5050161;28;20224;-85
2023/09/13 07:59:14;;;;;;;6.30;4.80;;;;;;;23.27;78.17;95686.31;5050235;28;20205;-85
2023/09/13 08:01:42;;;;;;;6.78;3.88;;;;;;;23.24;77.19;95657.91;5050358;28;20309;-85
2023/09/13 08:04:08;;;;;;;5.38;4.85;;;;;;;23.29;77.63;95676.31;5049967;28;20209;-85
2023/09/13 08:06:35;;;;;;;10.05;8.18;;;;;;;23.35;76.50;95665.59;5046367;28;20887;-85
2023/09/13 08:09:02;;;;;;;7.75;5.25;;;;;;;23.42;77.01;95668.78;5043354;28;20206;-85
2023/09/13 08:11:28;;;;;;;6.25;4.40;;;;;;;23.49;75.66;95641.47;5030088;28;20202;-85
2023/09/13 08:13:55;;;;;;;7.28;4.25;;;;;;;23.55;75.11;95646.53;5029930;28;20209;-85
2023/09/13 08:16:21;;;;;;;4.82;4.22;;;;;;;23.59;75.53;95659.97;5029850;28;20216;-85
2023/09/13 08:18:49;;;;;;;4.40;4.00;;;;;;;23.59;75.14;95652.88;5028821;28;20582;-85
2023/09/13 08:21:15;;;;;;;4.30;3.90;;;;;;;23.58;74.59;95632.88;5029150;28;20241;-85
2023/09/13 08:23:42;;;;;;;5.32;4.82;;;;;;;23.47;74.92;95640.97;5042068;28;20201;-85
2023/09/13 08:26:08;;;;;;;5.63;4.47;;;;;;;23.52;74.92;95649.66;5034749;28;20560;-85
2023/09/13 08:28:35;;;;;;;4.40;4.00;;;;;;;23.52;74.90;95657.56;5029732;28;20284;-84
2023/09/13 08:31:03;;;;;;;5.55;4.32;;;;;;;23.64;74.10;95638.97;5029797;28;20221;-85
2023/09/13 08:33:29;;;;;;;4.55;4.15;;;;;;;23.72;74.52;95646.34;5029278;28;20625;-85
2023/09/13 08:35:57;;;;;;;4.82;4.30;;;;;;;23.73;75.31;95661.06;5029762;28;20298;-85
2023/09/13 08:38:24;;;;;;;6.28;5.68;;;;;;;23.70;74.81;95662.38;5031560;28;20220;-85
2023/09/13 08:40:54;;;;;;;8.77;5.78;;;;;;;23.67;73.91;95626.06;5049684;28;20628;-85
2023/09/13 08:43:20;;;;;;;4.93;4.53;;;;;;;23.62;74.02;95651.56;5037238;28;20198;-84
2023/09/13 08:45:48;;;;;;;5.30;4.80;;;;;;;23.64;74.27;95658.16;5029648;28;20579;-85
2023/09/13 08:48:19;;;;;;;6.38;4.55;;;;;;;23.64;74.90;95673.94;5029495;28;20233;-85
2023/09/13 08:50:47;;;;;;;5.45;4.55;;;;;;;23.70;74.08;95657.09;5029561;28;20204;-84
2023/09/13 08:53:17;;;;;;;4.50;4.10;;;;;;;23.68;74.81;95664.44;5028895;28;20300;-85
2023/09/13 08:55:46;;;;;;;4.80;4.40;;;;;;;23.78;74.01;95661.09;5041107;28;20205;-84
2023/09/13 08:58:12;;;;;;;7.47;4.25;;;;;;;23.84;73.73;95646.13;5048860;28;20221;-85
2023/09/13 09:00:42;;;;;;;4.88;4.45;;;;;;;23.84;74.55;95675.06;5049050;28;20594;-85
2023/09/13 09:03:12;;;;;;;4.90;4.50;;;;;;;23.83;75.32;95690.03;5048896;28;20689;-84
2023/09/13 09:05:40;;;;;;;4.78;4.28;;;;;;;23.90;74.61;95672.16;5049086;28;20213;-84
2023/09/13 09:08:07;;;;;;;5.60;4.47;;;;;;;23.90;72.30;95605.63;5048827;28;20244;-85
2023/09/13 09:10:36;;;;;;;4.57;4.15;;;;;;;24.00;72.36;95606.47;5030045;28;20228;-85
2023/09/13 09:13:04;;;;;;;5.03;4.40;;;;;;;24.13;69.51;95525.44;5048492;28;20209;-84
2023/09/13 09:15:34;;;;;;;5.20;4.43;;;;;;;24.19;71.78;95598.06;5048998;28;20217;-84
2023/09/13 09:18:05;;;;;;;4.93;4.43;;;;;;;24.32;72.40;95622.06;5043091;28;20228;-84
2023/09/13 09:20:32;;;;;;;5.20;4.70;;;;;;;24.39;73.20;95634.97;5020892;28;20248;-84
2023/09/13 09:22:59;;;;;;;4.68;4.28;;;;;;;24.40;73.55;95639.19;5029183;28;20206;-85
2023/09/13 09:25:26;;;;;;;5.28;4.78;;;;;;;24.57;73.15;95633.66;5028778;28;20190;-85
2023/09/13 09:27:54;;;;;;;5.63;4.65;;;;;;;24.87;69.94;95565.16;5040558;28;20625;-84
2023/09/13 09:30:31;;;;;;;6.57;4.50;;;;;;;25.53;68.42;95514.88;5049000;28;20411;-84
2023/09/13 09:33:00;;;;;;;5.28;4.57;;;;;;;25.68;65.90;95430.41;5048525;28;20215;-85
2023/09/13 09:35:27;;;;;;;5.47;4.95;;;;;;;25.80;65.57;95415.00;5037339;28;20202;-84
2023/09/13 09:37:53;;;;;;;5.07;4.20;;;;;;;25.75;64.05;95378.13;5029560;28;20317;-84
2023/09/13 09:40:20;;;;;;;6.72;5.63;;;;;;;25.79;62.31;95307.13;5028909;28;20225;-84
2023/09/13 09:42:54;;;;;;;5.10;4.53;;;;;;;26.04;61.26;95287.63;5029133;28;20201;-84
2023/09/13 09:45:20;;;;;;;5.05;4.65;;;;;;;26.33;61.09;95271.75;5048946;28;20255;-84
2023/09/13 09:47:47;;;;;;;5.05;4.63;;;;;;;26.62;61.00;95275.06;5048287;28;20256;-84
2023/09/13 09:50:19;;;;;;;5.00;4.60;;;;;;;26.89;58.79;95179.28;5028810;28;20664;-84
2023/09/13 09:52:49;;;;;;;6.70;4.65;;;;;;;27.12;58.77;95201.41;5028644;28;20212;-84
2023/09/13 09:55:21;;;;;;;4.88;4.25;;;;;;;27.25;58.31;95176.09;5028651;28;20579;-84
2023/09/13 09:57:48;;;;;;;5.25;4.75;;;;;;;27.08;57.87;95148.34;5028626;28;20228;-84
2023/09/13 10:00:17;;;;;;;5.32;4.82;;;;;;;26.91;59.01;95181.66;5040538;28;20197;-84
2023/09/13 10:02:44;;;;;;;5.40;4.90;;;;;;;26.63;59.24;95205.31;5048040;28;20212;-85
2023/09/13 10:05:13;;;;;;;5.20;4.72;;;;;;;26.46;59.74;95221.66;5048260;28;20267;-85
2023/09/13 10:07:40;;;;;;;5.22;4.72;;;;;;;26.39;59.89;95234.41;5048310;28;20274;-84
2023/09/13 10:10:10;;;;;;;4.70;4.30;;;;;;;26.37;61.00;95262.19;5031854;28;20202;-84
2023/09/13 10:12:45;;;;;;;4.90;4.30;;;;;;;26.34;61.36;95273.31;5028489;28;20202;-84
2023/09/13 10:15:12;;;;;;;5.15;4.65;;;;;;;26.32;61.89;95304.50;5030517;28;20234;-85
2023/09/13 10:17:41;;;;;;;5.28;4.68;;;;;;;26.36;59.99;95235.00;5038565;28;20236;-84
2023/09/13 10:20:11;;;;;;;5.15;4.75;;;;;;;26.32;60.10;95223.44;5048323;28;20205;-84
2023/09/13 10:22:41;;;;;;;5.80;4.90;;;;;;;26.17;59.83;95205.13;5047925;28;20288;-84
2023/09/13 10:25:12;;;;;;;10.23;8.32;;;;;;;26.04;60.36;95255.94;5042298;28;20291;-84
2023/09/13 10:27:39;;;;;;;14.23;12.57;;;;;;;25.82;62.30;95314.50;5028529;28;20257;-84
2023/09/13 10:30:10;;;;;;;8.88;8.00;;;;;;;25.78;62.59;95324.06;5028300;28;20586;-84
2023/09/13 10:32:45;;;;;;;8.00;7.20;;;;;;;25.72;61.17;95286.38;5041068;28;20201;-83
2023/09/13 10:35:13;;;;;;;9.48;8.43;;;;;;;25.66;60.58;95223.41;5039042;28;20216;-84
2023/09/13 10:37:46;;;;;;;11.10;9.80;;;;;;;25.65;61.57;95279.84;5028016;28;20249;-84
2023/09/13 10:40:19;;;;;;;7.15;6.55;;;;;;;25.63;61.83;95285.41;5028142;28;20206;-84
2023/09/13 10:42:47;;;;;;;6.43;5.82;;;;;;;25.50;61.63;95290.50;5027900;28;20202;-84
2023/09/13 10:45:18;;;;;;;6.53;5.10;;;;;;;25.45;61.60;95268.41;5031005;28;20202;-84
2023/09/13 10:47:47;;;;;;;6.38;5.78;;;;;;;25.44;61.50;95256.28;5009015;28;20238;-84
2023/09/13 10:50:15;;;;;;;5.13;4.68;;;;;;;25.34;61.34;95256.38;5041868;28;20205;-85
2023/09/13 10:52:43;;;;;;;5.32;4.85;;;;;;;25.32;61.82;95291.97;5051177;28;20690;-84
2023/09/13 10:55:10;;;;;;;5.22;4.82;;;;;;;25.17;63.69;95331.63;5051378;28;20201;-84
2023/09/13 10:57:38;;;;;;;5.53;4.93;;;;;;;25.17;63.25;95327.16;5051714;28;20602;-85
2023/09/13 11:00:09;;;;;;;5.07;4.60;;;;;;;25.12;63.57;95337.72;5052183;28;20208;-84
2023/09/13 11:02:36;;;;;;;5.40;4.95;;;;;;;25.10;63.93;95356.44;5051549;28;20225;-84
2023/09/13 11:05:05;;;;;;;7.60;5.63;;;;;;;25.00;65.02;95395.25;5047817;28;20201;-84
2023/09/13 11:07:32;;;;;;;5.70;5.20;;;;;;;24.96;66.39;95431.09;5051540;28;20228;-85
2023/09/13 11:10:04;;;;;;;5.68;5.07;;;;;;;24.85;67.76;95485.59;5036426;28;20199;-84
2023/09/13 11:12:35;;;;;;;5.40;5.00;;;;;;;24.76;70.26;95545.16;5024414;28;20199;-84
2023/09/13 11:15:12;;;;;;;9.60;6.20;;;;;;;24.65;74.19;95625.22;5031056;28;20197;-84
2023/09/13 11:17:40;;;;;;;6.88;5.97;;;;;;;24.48;76.50;95687.88;5030419;28;20225;-84
2023/09/13 11:20:27;;;;;;;11.57;10.38;;;;;;;24.30;78.50;95726.00;5038999;28;20205;-84
2023/09/13 11:23:08;;;;;;;11.60;10.48;;;;;;;24.12;78.85;95729.84;5042700;28;20197;-83
2023/09/13 11:25:36;;;;;;;9.18;8.27;;;;;;;23.97;80.31;95775.31;5044762;28;20661;-84
2023/09/13 11:28:07;;;;;;;12.25;9.02;;;;;;;23.90;84.29;95827.34;5033349;28;20235;-84
2023/09/13 11:30:48;;;;;;;11.38;10.18;;;;;;;23.86;85.17;95849.19;5035135;28;20210;-84
2023/09/13 11:33:15;;;;;;;16.90;14.23;;;;;;;23.72;88.89;95886.41;5037187;28;20205;-84
2023/09/13 11:35:43;;;;;;;11.52;9.13;;;;;;;23.66;87.44;95865.59;5038725;28;20244;-84